createdAt,value
2023-05-05T00:01:10.254Z,8.45
2023-05-05T00:03:14.999Z,8.35
2023-05-05T00:05:18.497Z,8.18
2023-05-05T00:07:21.326Z,8.23
2023-05-05T00:09:24.399Z,7.97
2023-05-05T00:11:27.379Z,8.10
2023-05-05T00:13:31.913Z,8.30
2023-05-05T00:15:34.798Z,8.50
2023-05-05T00:17:37.734Z,8.02
2023-05-05T00:19:41.273Z,8.05
2023-05-05T00:21:44.123Z,8.38
2023-05-05T00:23:47.208Z,9.68
2023-05-05T00:25:50.269Z,9.13
2023-05-05T00:27:53.093Z,9.55
2023-05-05T00:29:57.605Z,9.85
2023-05-05T00:32:00.498Z,9.13
2023-05-05T00:34:03.446Z,8.85
2023-05-05T00:36:06.797Z,9.68
2023-05-05T00:38:09.937Z,9.27
2023-05-05T00:40:13.600Z,9.80
2023-05-05T00:42:16.808Z,9.48
2023-05-05T00:44:37.371Z,9.15
2023-05-05T00:46:43.575Z,9.38
2023-05-05T00:48:47.388Z,9.52
2023-05-05T00:50:50.419Z,9.27
2023-05-05T00:52:56.036Z,10.15
2023-05-05T00:54:59.033Z,9.68
2023-05-05T00:57:02.640Z,8.50
2023-05-05T00:59:05.559Z,8.98
2023-05-05T01:01:08.643Z,8.63
2023-05-05T01:03:15.676Z,9.60
2023-05-05T01:05:19.863Z,10.02
2023-05-05T01:07:31.777Z,9.40
2023-05-05T01:09:39.550Z,9.00
2023-05-05T01:11:51.935Z,8.43
2023-05-05T01:14:03.895Z,9.50
2023-05-05T01:16:12.817Z,8.20
2023-05-05T01:18:25.698Z,8.90
2023-05-05T01:20:36.560Z,9.18
2023-05-05T01:22:45.200Z,8.68
2023-05-05T01:25:18.210Z,8.57
2023-05-05T01:27:41.757Z,8.55
2023-05-05T01:30:02.546Z,8.77
2023-05-05T01:32:10.040Z,9.23
2023-05-05T01:34:17.239Z,9.50
2023-05-05T01:36:24.586Z,9.23
2023-05-05T01:38:35.158Z,8.27
2023-05-05T01:40:42.832Z,8.18
2023-05-05T01:42:46.871Z,8.98
2023-05-05T01:44:52.506Z,9.13
2023-05-05T01:49:00.138Z,9.30
2023-05-05T01:51:05.705Z,9.68
2023-05-05T01:53:10.414Z,8.93
2023-05-05T01:55:16.398Z,9.20
2023-05-05T01:57:21.864Z,9.57
2023-05-05T02:01:30.779Z,9.25
2023-05-05T02:03:36.642Z,9.45
2023-05-05T02:05:43.140Z,9.75
2023-05-05T02:07:47.100Z,10.15
2023-05-05T02:09:51.524Z,8.93
2023-05-05T02:11:55.954Z,9.45
2023-05-05T02:14:01.646Z,9.65
2023-05-05T02:16:06.641Z,9.05
2023-05-05T02:18:11.338Z,8.77
2023-05-05T02:20:16.580Z,9.63
2023-05-05T02:22:20.970Z,8.85
2023-05-05T02:24:24.511Z,8.82
2023-05-05T02:26:30.688Z,8.55
2023-05-05T02:28:41.032Z,8.85
2023-05-05T02:30:45.198Z,9.25
2023-05-05T02:32:55.605Z,9.57
2023-05-05T02:35:09.820Z,9.43
2023-05-05T02:37:20.400Z,8.52
2023-05-05T02:39:33.320Z,8.32
2023-05-05T02:41:43.240Z,9.05
2023-05-05T02:43:58.340Z,9.20
2023-05-05T02:46:02.476Z,8.90
2023-05-05T02:48:07.520Z,8.90
2023-05-05T02:50:16.344Z,8.82
2023-05-05T02:52:28.199Z,9.10
2023-05-05T02:54:33.461Z,9.23
2023-05-05T02:56:43.378Z,9.23
2023-05-05T02:58:52.308Z,9.32
2023-05-05T03:01:05.832Z,8.98
2023-05-05T03:03:18.112Z,9.50
2023-05-05T03:05:25.623Z,8.98
2023-05-05T03:07:38.550Z,9.43
2023-05-05T03:09:52.273Z,9.52
2023-05-05T03:12:01.375Z,8.50
2023-05-05T03:14:09.346Z,9.02
2023-05-05T03:16:13.701Z,8.98
2023-05-05T03:18:20.704Z,10.00
2023-05-05T03:20:30.937Z,9.15
2023-05-05T03:22:38.924Z,9.90
2023-05-05T03:24:52.025Z,9.15
2023-05-05T03:26:59.035Z,10.18
2023-05-05T03:29:08.397Z,9.40
2023-05-05T03:31:15.656Z,10.20
2023-05-05T03:33:19.265Z,9.85
2023-05-05T03:35:23.444Z,10.75
2023-05-05T03:37:26.520Z,9.50
2023-05-05T03:39:29.482Z,9.10
2023-05-05T03:41:34.873Z,9.48
2023-05-05T03:43:40.030Z,9.52
2023-05-05T03:45:43.376Z,9.18
2023-05-05T03:47:47.124Z,9.48
2023-05-05T03:49:50.090Z,8.75
2023-05-05T03:51:53.783Z,9.75
2023-05-05T03:53:56.813Z,8.57
2023-05-05T03:55:59.746Z,8.75
2023-05-05T03:58:04.215Z,8.68
2023-05-05T04:02:18.597Z,9.38
2023-05-05T04:04:23.086Z,9.35
2023-05-05T04:06:26.714Z,9.30
2023-05-05T04:08:29.968Z,8.82
2023-05-05T04:10:32.889Z,9.55
2023-05-05T04:12:36.811Z,9.23
2023-05-05T04:14:41.190Z,8.77
2023-05-05T04:16:45.353Z,9.50
2023-05-05T04:18:48.346Z,9.73
2023-05-05T04:20:51.531Z,9.18
2023-05-05T04:22:54.530Z,9.35
2023-05-05T04:24:58.869Z,9.88
2023-05-05T04:27:02.616Z,9.05
2023-05-05T04:29:06.582Z,10.20
2023-05-05T04:31:11.357Z,9.93
2023-05-05T04:33:17.489Z,9.75
2023-05-05T04:35:22.597Z,9.60
2023-05-05T04:37:26.241Z,9.90
2023-05-05T04:39:29.848Z,9.10
2023-05-05T04:41:33.230Z,9.50
2023-05-05T04:43:36.402Z,9.23
2023-05-05T04:45:39.374Z,9.57
2023-05-05T04:47:44.057Z,9.80
2023-05-05T04:49:47.525Z,9.73
2023-05-05T04:51:50.359Z,10.88
2023-05-05T04:53:53.421Z,11.85
2023-05-05T04:55:56.485Z,10.68
2023-05-05T04:57:59.543Z,9.93
2023-05-05T05:00:05.131Z,10.60
2023-05-05T05:02:08.700Z,10.85
2023-05-05T05:04:14.123Z,10.30
2023-05-05T05:08:19.855Z,9.98
2023-05-05T05:10:22.976Z,10.27
2023-05-05T05:12:25.892Z,10.75
2023-05-05T05:14:29.103Z,10.45
2023-05-05T05:16:32.215Z,10.75
2023-05-05T05:18:35.404Z,10.40
2023-05-05T05:20:39.991Z,11.27
2023-05-05T05:22:43.790Z,11.27
2023-05-05T05:24:52.550Z,11.60
2023-05-05T05:26:55.849Z,11.27
2023-05-05T05:28:58.708Z,11.27
2023-05-05T05:31:01.799Z,11.27
2023-05-05T05:33:05.275Z,11.07
2023-05-05T05:35:08.806Z,11.18
2023-05-05T05:37:13.940Z,11.65
2023-05-05T05:41:20.432Z,10.63
2023-05-05T05:43:23.433Z,10.38
2023-05-05T05:45:26.470Z,10.18
2023-05-05T05:47:29.578Z,9.55
2023-05-05T05:49:33.105Z,9.75
2023-05-05T05:51:37.300Z,9.65
2023-05-05T05:53:41.614Z,9.70
2023-05-05T05:55:46.850Z,10.05
2023-05-05T05:57:50.583Z,10.60
2023-05-05T05:59:54.333Z,9.82
2023-05-05T06:01:57.965Z,10.15
2023-05-05T06:04:01.899Z,9.15
2023-05-05T06:06:05.526Z,10.45
2023-05-05T06:08:08.823Z,10.13
2023-05-05T06:10:26.427Z,10.00
2023-05-05T06:12:34.688Z,11.20
2023-05-05T06:14:38.579Z,10.40
2023-05-05T06:16:41.724Z,10.63
2023-05-05T06:18:48.727Z,10.63
2023-05-05T06:20:52.693Z,11.20
2023-05-05T06:22:58.474Z,11.00
2023-05-05T06:25:02.915Z,9.82
2023-05-05T06:27:07.280Z,9.40
2023-05-05T06:29:12.225Z,10.88
2023-05-05T06:31:15.490Z,10.63
2023-05-05T06:33:18.465Z,8.77
2023-05-05T06:35:22.627Z,10.13
2023-05-05T06:37:25.613Z,9.75
2023-05-05T06:39:28.395Z,8.93
2023-05-05T06:41:31.325Z,9.35
2023-05-05T06:43:35.973Z,9.40
2023-05-05T06:45:43.977Z,10.07
2023-05-05T06:47:47.011Z,8.25
2023-05-05T06:49:50.124Z,7.93
2023-05-05T06:51:53.016Z,8.98
2023-05-05T06:53:55.985Z,8.18
2023-05-05T06:55:59.118Z,7.72
2023-05-05T06:58:02.102Z,7.72
2023-05-05T07:00:11.564Z,8.48
2023-05-05T07:02:14.582Z,7.93
2023-05-05T07:04:17.678Z,7.60
2023-05-05T07:06:20.716Z,7.75
2023-05-05T07:08:23.648Z,7.32
2023-05-05T07:10:28.123Z,8.05
2023-05-05T07:12:31.560Z,7.90
2023-05-05T07:14:34.617Z,7.05
2023-05-05T07:16:39.069Z,7.00
2023-05-05T07:18:41.940Z,7.30
2023-05-05T07:20:45.231Z,7.18
2023-05-05T07:22:48.087Z,7.43
2023-05-05T07:24:53.506Z,7.28
2023-05-05T07:28:59.559Z,7.30
2023-05-05T07:31:02.672Z,6.43
2023-05-05T07:33:07.164Z,6.63
2023-05-05T07:35:10.795Z,6.35
2023-05-05T07:37:13.918Z,6.22
2023-05-05T07:39:18.750Z,6.60
2023-05-05T07:41:21.701Z,6.63
2023-05-05T07:43:24.730Z,5.78
2023-05-05T07:45:29.206Z,6.32
2023-05-05T07:47:32.340Z,5.82
2023-05-05T07:49:36.954Z,6.38
2023-05-05T07:51:39.996Z,6.18
2023-05-05T07:53:43.307Z,6.20
2023-05-05T07:55:46.692Z,5.75
2023-05-05T07:57:50.115Z,6.32
2023-05-05T07:59:53.076Z,6.22
2023-05-05T08:01:55.999Z,5.25
2023-05-05T08:03:59.067Z,6.07
2023-05-05T08:06:11.342Z,5.20
2023-05-05T08:08:14.404Z,5.70
2023-05-05T08:10:17.298Z,5.53
2023-05-05T08:12:20.188Z,5.38
2023-05-05T08:14:23.381Z,4.70
2023-05-05T08:16:26.475Z,5.15
2023-05-05T08:18:29.417Z,4.50
2023-05-05T08:20:32.613Z,4.43
2023-05-05T08:22:36.997Z,5.38
2023-05-05T08:24:39.907Z,4.57
2023-05-05T08:26:42.868Z,4.38
2023-05-05T08:28:47.016Z,5.40
2023-05-05T08:30:51.106Z,4.40
2023-05-05T08:32:54.399Z,3.80
2023-05-05T08:34:57.488Z,4.03
2023-05-05T08:37:00.421Z,4.43
2023-05-05T08:39:04.971Z,4.38
2023-05-05T08:41:10.326Z,3.65
2023-05-05T08:43:13.220Z,3.75
2023-05-05T08:45:16.531Z,4.10
2023-05-05T08:47:20.866Z,3.97
2023-05-05T08:49:25.776Z,4.13
2023-05-05T08:51:33.739Z,4.05
2023-05-05T08:53:47.565Z,3.88
2023-05-05T08:55:52.905Z,4.07
2023-05-05T09:00:01.832Z,4.55
2023-05-05T09:02:07.640Z,4.38
2023-05-05T09:04:11.361Z,4.20
2023-05-05T09:06:14.468Z,4.15
2023-05-05T09:08:18.224Z,4.45
2023-05-05T09:10:21.530Z,4.30
2023-05-05T09:12:30.426Z,4.88
2023-05-05T09:16:53.368Z,4.03
2023-05-05T09:19:03.669Z,3.97
2023-05-05T09:21:20.272Z,3.65
2023-05-05T09:23:23.615Z,4.40
2023-05-05T09:25:26.650Z,4.50
2023-05-05T09:27:31.345Z,4.30
2023-05-05T09:29:34.369Z,4.60
2023-05-05T09:31:38.133Z,3.78
2023-05-05T09:33:41.137Z,4.03
2023-05-05T09:35:51.885Z,4.10
2023-05-05T09:37:55.032Z,4.28
2023-05-05T09:40:03.453Z,4.78
2023-05-05T09:42:06.504Z,4.90
2023-05-05T09:44:11.790Z,4.45
2023-05-05T09:46:15.104Z,5.15
2023-05-05T09:48:26.103Z,5.75
2023-05-05T09:50:31.230Z,5.13
2023-05-05T09:52:34.307Z,5.00
2023-05-05T09:54:37.355Z,4.93
2023-05-05T09:56:40.832Z,4.97
2023-05-05T09:58:43.972Z,4.97
2023-05-05T10:00:48.497Z,5.57
2023-05-05T10:02:51.628Z,4.95
2023-05-05T10:05:06.484Z,5.70
2023-05-05T10:07:19.130Z,5.22
2023-05-05T10:09:22.175Z,5.13
2023-05-05T10:11:25.276Z,4.93
2023-05-05T10:13:29.632Z,4.95
2023-05-05T10:15:32.509Z,5.50
2023-05-05T10:18:02.312Z,4.72
2023-05-05T10:20:11.122Z,4.95
2023-05-05T10:22:14.588Z,5.03
2023-05-05T10:24:26.341Z,4.80
2023-05-05T10:26:34.903Z,4.70
2023-05-05T10:28:44.484Z,4.70
2023-05-05T10:30:52.005Z,4.30
2023-05-05T10:33:17.400Z,5.03
2023-05-05T10:35:27.937Z,4.32
2023-05-05T10:37:31.418Z,5.15
2023-05-05T10:39:37.115Z,4.47
2023-05-05T10:41:40.094Z,4.60
2023-05-05T10:43:43.538Z,4.47
2023-05-05T10:45:46.822Z,4.95
2023-05-05T10:47:51.512Z,4.82
2023-05-05T10:50:02.821Z,4.57
2023-05-05T10:52:14.480Z,4.07
2023-05-05T10:54:23.638Z,4.57
2023-05-05T10:56:31.584Z,4.38
2023-05-05T10:58:46.894Z,4.13
2023-05-05T11:00:54.861Z,4.00
2023-05-05T11:03:22.588Z,4.28
2023-05-05T11:05:27.288Z,4.22
2023-05-05T11:07:29.938Z,3.90
2023-05-05T11:09:33.572Z,3.55
2023-05-05T11:12:04.655Z,3.78
2023-05-05T11:14:23.095Z,4.15
2023-05-05T11:16:48.124Z,3.05
2023-05-05T11:18:51.307Z,3.65
2023-05-05T11:21:15.960Z,3.28
2023-05-05T11:23:25.032Z,3.67
2023-05-05T11:25:47.488Z,3.22
2023-05-05T11:28:08.844Z,3.10
2023-05-05T11:30:13.496Z,3.60
2023-05-05T11:32:16.546Z,3.58
2023-05-05T11:34:29.256Z,3.38
2023-05-05T11:36:41.285Z,3.70
2023-05-05T11:39:00.200Z,3.20
2023-05-05T11:41:12.597Z,3.28
2023-05-05T11:43:19.418Z,3.40
2023-05-05T11:45:24.051Z,3.05
2023-05-05T11:47:29.194Z,4.10
2023-05-05T11:49:33.395Z,3.67
2023-05-05T11:51:36.983Z,3.08
2023-05-05T11:53:44.756Z,2.40
2023-05-05T11:55:47.718Z,3.13
2023-05-05T11:57:50.955Z,3.30
2023-05-05T11:59:55.695Z,3.30
2023-05-05T12:01:58.915Z,2.97
2023-05-05T12:04:02.016Z,3.35
2023-05-05T12:06:05.972Z,2.95
2023-05-05T12:08:08.976Z,3.03
2023-05-05T12:10:13.606Z,3.40
2023-05-05T12:12:17.187Z,3.55
2023-05-05T12:14:21.273Z,3.42
2023-05-05T12:16:24.241Z,3.47
2023-05-05T12:18:27.220Z,27.23
2023-05-05T12:20:32.660Z,7.30
2023-05-05T12:24:38.055Z,4.70
2023-05-05T12:26:42.810Z,4.05
2023-05-05T12:28:49.038Z,3.27
2023-05-05T12:30:59.218Z,4.20
2023-05-05T12:33:03.245Z,3.72
2023-05-05T12:35:08.126Z,3.08
2023-05-05T12:37:11.589Z,3.67
2023-05-05T12:39:14.477Z,3.45
2023-05-05T12:41:20.029Z,3.13
2023-05-05T12:43:32.056Z,3.83
2023-05-05T12:45:35.046Z,2.85
2023-05-05T12:47:38.724Z,3.70
2023-05-05T12:49:49.142Z,3.30
2023-05-05T12:51:56.759Z,3.22
2023-05-05T12:54:05.569Z,3.22
2023-05-05T12:56:29.439Z,2.60
2023-05-05T13:01:11.189Z,3.30
2023-05-05T13:03:20.524Z,2.83
2023-05-05T13:05:33.523Z,2.70
2023-05-05T13:07:37.103Z,3.28
2023-05-05T13:09:40.410Z,2.33
2023-05-05T13:11:43.545Z,2.60
2023-05-05T13:13:46.616Z,2.22
2023-05-05T13:15:49.591Z,2.60
2023-05-05T13:18:00.415Z,2.80
2023-05-05T13:20:04.146Z,2.95
2023-05-05T13:22:06.948Z,2.70
2023-05-05T13:24:23.536Z,2.65
2023-05-05T13:26:31.474Z,2.60
2023-05-05T13:28:34.458Z,2.60
2023-05-05T13:30:37.376Z,3.05
2023-05-05T13:32:40.317Z,2.90
2023-05-05T13:34:44.807Z,2.13
2023-05-05T13:36:47.749Z,2.55
2023-05-05T13:38:50.653Z,2.40
2023-05-05T13:40:54.071Z,3.10
2023-05-05T13:42:57.105Z,2.78
2023-05-05T13:45:00.027Z,3.40
2023-05-05T13:47:03.337Z,2.78
2023-05-05T13:49:06.408Z,2.20
2023-05-05T13:51:10.769Z,2.53
2023-05-05T13:53:13.779Z,2.97
2023-05-05T13:55:17.121Z,2.90
2023-05-05T13:57:19.968Z,2.53
2023-05-05T13:59:23.325Z,2.28
2023-05-05T14:01:26.496Z,2.05
2023-05-05T14:03:29.626Z,2.13
2023-05-05T14:05:33.829Z,2.10
2023-05-05T14:07:38.262Z,1.95
2023-05-05T14:09:41.229Z,2.65
2023-05-05T14:11:44.181Z,2.22
2023-05-05T14:13:47.778Z,2.35
2023-05-05T14:15:52.857Z,2.20
2023-05-05T14:17:55.916Z,2.90
2023-05-05T14:19:58.858Z,2.70
2023-05-05T14:22:01.852Z,2.40
2023-05-05T14:24:07.097Z,2.70
2023-05-05T14:26:10.192Z,2.50
2023-05-05T14:28:13.118Z,2.30
2023-05-05T14:30:16.277Z,2.40
2023-05-05T14:32:19.108Z,2.63
2023-05-05T14:34:22.188Z,1.85
2023-05-05T14:36:25.115Z,2.35
2023-05-05T14:38:28.092Z,2.10
2023-05-05T14:40:32.474Z,2.00
2023-05-05T14:42:35.439Z,2.65
2023-05-05T14:44:38.293Z,2.40
2023-05-05T14:46:41.745Z,2.30
2023-05-05T14:48:46.870Z,2.38
2023-05-05T14:50:50.295Z,2.57
2023-05-05T14:52:53.312Z,2.35
2023-05-05T14:54:56.209Z,2.50
2023-05-05T14:57:00.683Z,2.20
2023-05-05T14:59:03.858Z,2.43
2023-05-05T15:01:07.210Z,2.35
2023-05-05T15:03:10.275Z,2.03
2023-05-05T15:05:13.322Z,2.20
2023-05-05T15:07:16.271Z,3.45
2023-05-05T15:09:20.507Z,2.00
2023-05-05T15:11:23.535Z,2.58
2023-05-05T15:13:28.019Z,2.13
2023-05-05T15:15:31.320Z,2.13
2023-05-05T15:17:34.339Z,2.10
2023-05-05T15:19:37.706Z,2.35
2023-05-05T15:21:40.697Z,1.90
2023-05-05T15:23:43.688Z,2.20
2023-05-05T15:25:46.655Z,2.38
2023-05-05T15:27:49.817Z,2.30
2023-05-05T15:29:54.789Z,2.10
2023-05-05T15:31:57.981Z,2.10
2023-05-05T15:34:00.934Z,1.95
2023-05-05T15:36:04.222Z,2.50
2023-05-05T15:38:07.458Z,2.85
2023-05-05T15:40:11.297Z,2.30
2023-05-05T15:42:14.103Z,2.20
2023-05-05T15:44:17.515Z,2.28
2023-05-05T15:46:22.029Z,2.08
2023-05-05T15:48:25.146Z,2.50
2023-05-05T15:50:28.001Z,2.20
2023-05-05T15:52:30.995Z,2.10
2023-05-05T15:54:34.145Z,2.42
2023-05-05T15:56:37.223Z,1.88
2023-05-05T15:58:40.078Z,2.20
2023-05-05T16:00:43.069Z,2.60
2023-05-05T16:02:47.606Z,1.80
2023-05-05T16:04:50.813Z,2.43
2023-05-05T16:06:54.029Z,2.05
2023-05-05T16:08:58.968Z,2.20
2023-05-05T16:11:02.113Z,2.30
2023-05-05T16:13:05.116Z,2.28
2023-05-05T16:15:09.281Z,2.65
2023-05-05T16:17:12.372Z,2.33
2023-05-05T16:19:16.930Z,2.42
2023-05-05T16:21:20.215Z,2.63
2023-05-05T16:23:23.246Z,2.45
2023-05-05T16:25:26.196Z,2.60
2023-05-05T16:27:29.170Z,2.63
2023-05-05T16:29:32.245Z,2.50
2023-05-05T16:31:35.341Z,2.40
2023-05-05T16:33:43.896Z,2.10
2023-05-05T16:35:48.539Z,2.45
2023-05-05T16:37:52.803Z,2.10
2023-05-05T16:39:55.673Z,2.05
2023-05-05T16:41:58.740Z,2.05
2023-05-05T16:44:01.685Z,1.92
2023-05-05T16:46:05.026Z,2.13
2023-05-05T16:48:09.150Z,2.40
2023-05-05T16:50:12.291Z,2.33
2023-05-05T16:52:16.774Z,2.17
2023-05-05T16:54:19.799Z,2.40
2023-05-05T16:56:22.685Z,2.53
2023-05-05T16:58:25.916Z,3.00
2023-05-05T17:00:28.723Z,3.40
2023-05-05T17:02:32.006Z,3.75
2023-05-05T17:04:34.854Z,3.45
2023-05-05T17:06:37.924Z,3.28
2023-05-05T17:08:42.657Z,3.65
2023-05-05T17:10:46.538Z,2.90
2023-05-05T17:12:49.505Z,3.42
2023-05-05T17:14:52.494Z,3.60
2023-05-05T17:16:55.357Z,3.40
2023-05-05T17:18:58.354Z,3.50
2023-05-05T17:21:01.287Z,3.28
2023-05-05T17:23:05.290Z,3.58
2023-05-05T17:25:11.068Z,3.10
2023-05-05T17:27:14.343Z,3.60
2023-05-05T17:29:21.835Z,3.15
2023-05-05T17:31:24.819Z,3.17
2023-05-05T17:33:27.735Z,3.55
2023-05-05T17:35:30.743Z,3.60
2023-05-05T17:37:34.080Z,3.47
2023-05-05T17:39:37.005Z,4.15
2023-05-05T17:41:42.705Z,3.38
2023-05-05T17:43:45.663Z,3.33
2023-05-05T17:45:48.694Z,3.20
2023-05-05T17:47:51.859Z,3.72
2023-05-05T17:49:56.493Z,3.28
2023-05-05T17:51:59.638Z,3.50
2023-05-05T17:54:02.531Z,3.30
2023-05-05T17:56:08.581Z,4.28
2023-05-05T17:58:13.426Z,3.58
2023-05-05T18:00:17.027Z,3.80
2023-05-05T18:02:20.096Z,3.50
2023-05-05T18:04:23.198Z,3.17
2023-05-05T18:06:27.425Z,3.30
2023-05-05T18:08:30.514Z,3.17
2023-05-05T18:10:33.878Z,3.65
2023-05-05T18:12:37.264Z,3.60
2023-05-05T18:14:42.269Z,3.10
2023-05-05T18:16:50.948Z,3.80
2023-05-05T18:18:54.578Z,4.28
2023-05-05T18:20:58.164Z,3.92
2023-05-05T18:23:01.639Z,3.47
2023-05-05T18:25:07.981Z,3.42
2023-05-05T18:27:11.410Z,3.30
2023-05-05T18:29:16.307Z,3.80
2023-05-05T18:31:21.769Z,4.20
2023-05-05T18:35:28.517Z,3.85
2023-05-05T18:37:31.908Z,3.92
2023-05-05T18:39:34.757Z,4.18
2023-05-05T18:41:37.700Z,3.70
2023-05-05T18:43:41.377Z,3.80
2023-05-05T18:45:44.291Z,3.90
2023-05-05T18:47:48.714Z,4.25
2023-05-05T18:49:51.713Z,4.00
2023-05-05T18:51:56.038Z,4.03
2023-05-05T18:53:59.055Z,4.18
2023-05-05T18:56:02.039Z,3.28
2023-05-05T18:58:04.989Z,3.65
2023-05-05T19:00:09.755Z,4.15
2023-05-05T19:02:14.792Z,3.50
2023-05-05T19:06:34.727Z,3.77
2023-05-05T19:08:37.959Z,3.17
2023-05-05T19:10:42.071Z,3.20
2023-05-05T19:12:45.073Z,3.25
2023-05-05T19:14:48.020Z,3.42
2023-05-05T19:16:51.426Z,3.45
2023-05-05T19:18:58.905Z,3.53
2023-05-05T19:21:03.410Z,3.22
2023-05-05T19:23:07.372Z,3.90
2023-05-05T19:25:11.222Z,3.65
2023-05-05T19:27:16.567Z,3.40
2023-05-05T19:29:20.178Z,3.97
2023-05-05T19:31:27.870Z,3.53
2023-05-05T19:33:30.947Z,4.25
2023-05-05T19:35:33.839Z,3.70
2023-05-05T19:37:38.303Z,3.60
2023-05-05T19:39:43.403Z,3.50
2023-05-05T19:41:46.276Z,3.75
2023-05-05T19:43:50.278Z,4.13
2023-05-05T19:45:53.459Z,4.07
2023-05-05T19:47:57.126Z,3.67
2023-05-05T19:50:00.135Z,4.18
2023-05-05T19:52:03.627Z,3.88
2023-05-05T19:54:08.079Z,3.83
2023-05-05T19:56:11.911Z,3.40
2023-05-05T19:58:14.807Z,4.15
2023-05-05T20:00:18.682Z,4.05
2023-05-05T20:02:26.904Z,3.30
2023-05-05T20:04:29.863Z,3.47
2023-05-05T20:06:33.333Z,4.30
2023-05-05T20:08:36.223Z,3.42
2023-05-05T20:10:40.695Z,4.32
2023-05-05T20:12:49.320Z,4.30
2023-05-05T20:14:52.575Z,4.25
2023-05-05T20:16:55.433Z,4.50
2023-05-05T20:18:58.390Z,4.63
2023-05-05T20:21:02.407Z,4.35
2023-05-05T20:23:05.332Z,4.28
2023-05-05T20:25:09.264Z,4.50
2023-05-05T20:27:13.620Z,4.93
2023-05-05T20:29:16.646Z,4.88
2023-05-05T20:31:19.615Z,4.40
2023-05-05T20:33:22.507Z,4.30
2023-05-05T20:35:25.979Z,4.57
2023-05-05T20:37:28.805Z,4.15
2023-05-05T20:39:31.722Z,4.45
2023-05-05T20:41:36.524Z,4.15
2023-05-05T20:43:41.309Z,4.60
2023-05-05T20:45:44.593Z,4.32
2023-05-05T20:47:47.697Z,4.43
2023-05-05T20:49:52.606Z,4.30
2023-05-05T20:51:55.730Z,5.25
2023-05-05T20:53:58.680Z,4.72
2023-05-05T20:56:01.741Z,5.35
2023-05-05T20:58:05.833Z,5.97
2023-05-05T21:00:11.672Z,5.30
2023-05-05T21:02:14.878Z,6.47
2023-05-05T21:04:17.878Z,6.75
2023-05-05T21:06:20.825Z,5.60
2023-05-05T21:08:23.866Z,5.82
2023-05-05T21:10:26.912Z,5.57
2023-05-05T21:12:30.555Z,5.72
2023-05-05T21:14:33.655Z,5.25
2023-05-05T21:16:38.211Z,6.55
2023-05-05T21:18:41.048Z,6.30
2023-05-05T21:20:43.993Z,6.35
2023-05-05T21:22:46.872Z,7.03
2023-05-05T21:24:49.855Z,6.88
2023-05-05T21:26:52.796Z,6.32
2023-05-05T21:28:56.076Z,5.78
2023-05-05T21:31:19.887Z,6.60
2023-05-05T21:33:23.549Z,7.15
2023-05-05T21:35:26.407Z,8.00
2023-05-05T21:37:29.549Z,7.35
2023-05-05T21:39:35.686Z,7.43
2023-05-05T21:41:39.010Z,8.25
2023-05-05T21:43:42.147Z,7.40
2023-05-05T21:45:45.099Z,7.93
2023-05-05T21:47:47.972Z,8.05
2023-05-05T21:49:52.335Z,8.20
2023-05-05T21:51:55.173Z,7.78
2023-05-05T21:53:59.221Z,7.70
2023-05-05T21:56:02.165Z,7.85
2023-05-05T21:58:05.172Z,7.70
2023-05-05T22:00:09.430Z,7.93
2023-05-05T22:02:15.718Z,7.28
2023-05-05T22:04:18.688Z,8.38
2023-05-05T22:06:23.338Z,8.07
2023-05-05T22:08:27.149Z,7.95
2023-05-05T22:10:30.113Z,7.63
2023-05-05T22:12:33.179Z,8.07
2023-05-05T22:14:36.623Z,8.88
2023-05-05T22:16:39.558Z,7.45
2023-05-05T22:18:42.568Z,8.15
2023-05-05T22:20:45.608Z,7.75
2023-05-05T22:22:50.185Z,8.32
2023-05-05T22:24:53.135Z,7.82
2023-05-05T22:26:57.640Z,8.10
2023-05-05T22:29:00.848Z,8.35
2023-05-05T22:31:03.904Z,8.52
2023-05-05T22:33:06.876Z,8.65
2023-05-05T22:35:10.458Z,8.70
2023-05-05T22:37:14.316Z,8.65
2023-05-05T22:39:18.977Z,7.90
2023-05-05T22:41:21.968Z,8.80
2023-05-05T22:43:24.932Z,8.98
2023-05-05T22:45:28.140Z,7.60
2023-05-05T22:47:31.334Z,8.30
2023-05-05T22:49:34.334Z,8.75
2023-05-05T22:51:38.206Z,8.20
2023-05-05T22:53:41.185Z,8.30
2023-05-05T22:55:45.979Z,8.77
2023-05-05T22:57:48.896Z,8.02
2023-05-05T22:59:51.968Z,8.18
2023-05-05T23:01:55.015Z,8.18
2023-05-05T23:03:57.991Z,8.55
2023-05-05T23:06:00.965Z,8.88
2023-05-05T23:08:04.090Z,8.23
2023-05-05T23:10:08.026Z,8.07
2023-05-05T23:12:12.440Z,8.63
2023-05-05T23:14:17.175Z,8.57
2023-05-05T23:16:20.318Z,8.57
2023-05-05T23:18:23.280Z,8.23
2023-05-05T23:20:26.501Z,7.93
2023-05-05T23:22:29.395Z,8.90
2023-05-05T23:24:32.467Z,8.50
2023-05-05T23:26:35.357Z,7.82
2023-05-05T23:28:39.769Z,8.00
2023-05-05T23:30:42.904Z,8.27
2023-05-05T23:32:46.275Z,7.93
2023-05-05T23:34:49.418Z,8.25
2023-05-05T23:36:52.440Z,8.20
2023-05-05T23:38:55.358Z,8.18
2023-05-05T23:40:58.269Z,8.68
2023-05-05T23:43:01.379Z,8.43
2023-05-05T23:45:06.672Z,8.52
2023-05-05T23:47:09.529Z,8.27
2023-05-05T23:49:12.678Z,7.80
2023-05-05T23:51:15.817Z,8.70
2023-05-05T23:53:18.743Z,8.38
2023-05-05T23:55:21.968Z,8.60
2023-05-05T23:57:25.003Z,7.50
2023-05-05T23:59:27.860Z,7.90
